首页
METAR-TAF:

METAR-TAF

机场 :

金斯顿, 安大略省, 加拿大

纬度: 44-13N, 经度: 076-36W, 海拔: 93米

当前天气观测

该预报发布于43分钟前的22:05 UTC
风速6节,风向
温度 13°C
湿度 94%
气压 1002 hPa
能見度: 9.7公里
少量云层高于1800英尺
多云层高于3000英尺, 积雨云.
阴天层高于9600英尺
雷暴, 小雨

METAR: CYGK 032205Z 17006KT 6SM -TSRA FEW018 BKN030CB OVC096 13/12 A2960 RMK SF1CB5AC2 SLP027 DENSITY ALT 600FT

时间: 18:48 (22:48 UTC)

预报

该预报发布于1小时和3分钟前的21:45 UTC
预报有效从03日的 21点(UTC)到 04日的 03点(UTC)
风速8节,风向
能見度: 10公里
多云层高于3000英尺
多云层高于10000英尺
短暂存在
从 03日的 21点(UTC)到 03日的 23点(UTC)
风速20节,风向多变,有时为30节阵风
能見度: 3.2公里
阴天层高于2000英尺, 积雨云.
雷暴, 雨, 轻雾
从 03日的 2245点(UTC)
风速8节,风向南转西南
能見度: 10公里
多云层高于2500英尺
多云层高于8000英尺
短暂存在
从 03日的 22点(UTC)到 04日的 02点(UTC)
能見度: 10公里
多云层高于2000英尺
多云层高于8000英尺
小阵雨
几率 30%
从 03日的 22点(UTC)到 04日的 02点(UTC)
能見度: 3.2公里
阴天层高于2000英尺, 积雨云.
雷暴, 雨, 轻雾
从 04日的 0200点(UTC)
风速5节,风向西北
能見度: 10公里
多云层高于6000英尺
短暂存在
从 04日的 02点(UTC)到 04日的 03点(UTC)
能見度: 10公里
小阵雨

TAF: CYGK 032145Z 0321/0403 17008KT P6SM BKN030 BKN100 TEMPO 0321/0323 VRB20G30KT 2SM TSRA BR OVC020CB FM032245 21008KT P6SM BKN025 BKN080 TEMPO 0322/0402 P6SM -SHRA BKN020 BKN080 PROB30 0322/0402 2SM TSRA BR OVC020CB FM040200 31005KT P6SM BKN060 TEMPO 0402/0403 P6SM -SHRA RMK NXT FCST WILL BE ISSUED AT 041145Z

超过4000个机场的气象观测和天气预报(METAR&TAF报告)。

可查询的气象台以黄色和红色小点在地图上表示。

将鼠标移到小点上方,可查看气象台名称。

然后点击查看天气观测和预报。

如需切换地图:点击带黑十字的绿色按钮放大地图;点击带横线的绿色按钮缩小地图;或者点击绿色箭头查看邻近地区的地图。


METAR-TAF: